createdAt,value
2023-01-29T00:01:39.841Z,32.33
2023-01-29T00:04:07.291Z,32.21
2023-01-29T00:06:35.610Z,32.33
2023-01-29T00:09:03.020Z,32.23
2023-01-29T00:11:31.461Z,32.24
2023-01-29T00:13:59.876Z,32.19
2023-01-29T00:16:27.349Z,32.02
2023-01-29T00:18:54.693Z,32.02
2023-01-29T00:21:25.290Z,32.04
2023-01-29T00:23:52.757Z,31.90
2023-01-29T00:26:20.129Z,31.83
2023-01-29T00:28:47.560Z,31.80
2023-01-29T00:31:15.070Z,31.99
2023-01-29T00:36:09.945Z,31.80
2023-01-29T00:38:37.493Z,31.58
2023-01-29T00:41:23.611Z,31.69
2023-01-29T00:44:09.465Z,31.84
2023-01-29T00:46:36.916Z,31.57
2023-01-29T00:49:04.329Z,31.88
2023-01-29T00:51:31.834Z,31.73
2023-01-29T00:53:59.224Z,31.58
2023-01-29T00:58:53.799Z,31.47
2023-01-29T01:01:39.802Z,31.57
2023-01-29T01:04:07.014Z,31.46
2023-01-29T01:06:34.426Z,31.45
2023-01-29T01:09:20.427Z,31.53
2023-01-29T01:11:47.762Z,31.39
2023-01-29T01:14:15.483Z,31.63
2023-01-29T01:19:10.152Z,31.52
2023-01-29T01:21:37.659Z,31.34
2023-01-29T01:24:06.144Z,31.40
2023-01-29T01:26:33.454Z,31.50
2023-01-29T01:29:00.804Z,31.52
2023-01-29T01:31:28.193Z,31.38
2023-01-29T01:33:55.773Z,31.24
2023-01-29T01:36:23.056Z,31.41
2023-01-29T01:41:41.055Z,31.26
2023-01-29T01:44:08.442Z,31.40
2023-01-29T01:46:36.036Z,31.13
2023-01-29T01:49:03.563Z,30.96
2023-01-29T01:51:30.962Z,31.25
2023-01-29T01:53:58.338Z,31.17
2023-01-29T01:56:25.780Z,31.30
2023-01-29T02:01:42.883Z,31.56
2023-01-29T02:04:29.141Z,31.28
2023-01-29T02:07:15.053Z,31.58
2023-01-29T02:12:09.765Z,31.63
2023-01-29T02:14:39.604Z,31.50
2023-01-29T02:17:06.964Z,31.70
2023-01-29T02:19:34.356Z,31.39
2023-01-29T02:22:01.904Z,31.65
2023-01-29T02:24:29.306Z,31.40
2023-01-29T02:26:56.935Z,31.33
2023-01-29T02:29:25.357Z,31.49
2023-01-29T02:31:52.787Z,31.30
2023-01-29T02:34:20.801Z,31.58
2023-01-29T02:36:48.149Z,31.28
2023-01-29T02:39:15.604Z,31.45
2023-01-29T02:44:10.316Z,31.45
2023-01-29T02:46:37.687Z,31.62
2023-01-29T02:49:05.093Z,31.58
2023-01-29T02:51:32.399Z,31.59
2023-01-29T02:54:02.790Z,31.61
2023-01-29T02:56:30.242Z,31.54
2023-01-29T02:58:57.603Z,31.61
2023-01-29T03:01:24.982Z,31.44
2023-01-29T03:03:52.374Z,31.56
2023-01-29T03:06:22.466Z,31.61
2023-01-29T03:08:50.227Z,31.53
2023-01-29T03:11:17.949Z,31.58
2023-01-29T03:13:45.386Z,31.63
2023-01-29T03:16:12.830Z,31.74
2023-01-29T03:24:17.187Z,31.45
2023-01-29T03:27:03.273Z,31.39
2023-01-29T03:29:49.291Z,31.63
2023-01-29T03:32:16.665Z,31.39
2023-01-29T03:37:11.272Z,31.53
2023-01-29T03:39:38.569Z,31.63
2023-01-29T03:42:05.933Z,31.62
2023-01-29T03:44:33.245Z,31.73
2023-01-29T03:47:00.628Z,31.61
2023-01-29T03:49:27.951Z,31.64
2023-01-29T03:51:55.638Z,31.69
2023-01-29T03:54:23.491Z,31.66
2023-01-29T03:56:50.890Z,31.78
2023-01-29T03:59:18.192Z,31.41
2023-01-29T04:04:14.871Z,31.57
2023-01-29T04:06:42.280Z,31.78
2023-01-29T04:09:09.606Z,31.66
2023-01-29T04:11:37.021Z,31.61
2023-01-29T04:14:04.340Z,31.56
2023-01-29T04:16:31.764Z,31.63
2023-01-29T04:18:59.139Z,31.50
2023-01-29T04:21:26.472Z,31.57
2023-01-29T04:23:54.483Z,31.71
2023-01-29T04:26:21.952Z,31.77
2023-01-29T04:28:51.049Z,31.66
2023-01-29T04:31:21.321Z,31.61
2023-01-29T04:33:48.883Z,31.58
2023-01-29T04:36:16.436Z,31.67
2023-01-29T04:41:11.454Z,31.67
2023-01-29T04:43:38.744Z,31.48
2023-01-29T04:46:06.026Z,31.81
2023-01-29T04:48:33.455Z,31.65
2023-01-29T04:51:00.837Z,31.75
2023-01-29T04:53:28.198Z,31.86
2023-01-29T04:55:55.563Z,31.60
2023-01-29T04:58:22.894Z,31.50
2023-01-29T05:03:17.863Z,31.74
2023-01-29T05:05:45.400Z,31.70
2023-01-29T05:08:13.357Z,31.57
2023-01-29T05:13:07.926Z,31.76
2023-01-29T05:15:35.279Z,31.61
2023-01-29T05:18:03.228Z,31.83
2023-01-29T05:20:30.643Z,31.79
2023-01-29T05:23:00.284Z,31.78
2023-01-29T05:25:27.598Z,31.84
2023-01-29T05:28:13.561Z,31.87
2023-01-29T05:30:40.947Z,31.65
2023-01-29T05:33:08.296Z,31.71
2023-01-29T05:35:35.646Z,31.74
2023-01-29T05:38:02.981Z,31.91
2023-01-29T05:40:31.757Z,31.65
2023-01-29T05:42:59.149Z,31.68
2023-01-29T05:45:26.542Z,31.97
2023-01-29T05:47:53.870Z,31.82
2023-01-29T05:50:21.219Z,31.55
2023-01-29T05:52:48.551Z,31.77
2023-01-29T05:55:15.904Z,31.56
2023-01-29T05:57:43.201Z,31.84
2023-01-29T06:00:10.639Z,31.80
2023-01-29T06:02:38.041Z,31.92
2023-01-29T06:05:05.257Z,31.78
2023-01-29T06:07:32.446Z,31.54
2023-01-29T06:09:59.631Z,31.66
2023-01-29T06:12:26.809Z,31.72
2023-01-29T06:14:53.989Z,31.64
2023-01-29T06:17:21.159Z,31.97
2023-01-29T06:19:48.372Z,31.87
2023-01-29T06:22:15.659Z,31.87
2023-01-29T06:24:42.842Z,31.69
2023-01-29T06:27:10.011Z,31.74
2023-01-29T06:29:37.265Z,31.77
2023-01-29T06:32:04.525Z,31.86
2023-01-29T06:34:31.854Z,31.85
2023-01-29T06:36:59.038Z,31.74
2023-01-29T06:39:26.204Z,31.71
2023-01-29T06:41:53.369Z,31.89
2023-01-29T06:44:20.613Z,31.79
2023-01-29T06:46:47.789Z,31.80
2023-01-29T06:49:14.962Z,31.98
2023-01-29T06:51:42.316Z,31.58
2023-01-29T06:54:09.511Z,31.80
2023-01-29T06:59:03.816Z,31.78
2023-01-29T07:01:36.219Z,31.95
2023-01-29T07:04:03.834Z,31.92
2023-01-29T07:09:18.133Z,31.66
2023-01-29T07:11:45.349Z,31.86
2023-01-29T07:14:12.580Z,31.82
2023-01-29T07:16:39.828Z,31.75
2023-01-29T07:19:07.014Z,31.87
2023-01-29T07:21:34.188Z,31.77
2023-01-29T07:24:01.409Z,31.78
2023-01-29T07:26:28.620Z,31.85
2023-01-29T07:28:55.994Z,31.79
2023-01-29T07:31:23.344Z,31.71
2023-01-29T07:33:50.597Z,31.93
2023-01-29T07:36:17.812Z,31.95
2023-01-29T07:38:45.020Z,31.88
2023-01-29T07:41:12.653Z,31.76
2023-01-29T07:43:39.845Z,31.70
2023-01-29T07:46:07.115Z,31.91
2023-01-29T07:48:34.416Z,31.75
2023-01-29T07:51:01.625Z,31.62
2023-01-29T07:53:28.818Z,31.71
2023-01-29T07:55:55.992Z,31.67
2023-01-29T07:58:23.197Z,31.52
2023-01-29T08:06:24.784Z,31.58
2023-01-29T08:08:53.091Z,31.51
2023-01-29T08:11:20.274Z,31.33
2023-01-29T08:16:34.637Z,31.53
2023-01-29T08:19:01.820Z,31.33
2023-01-29T08:21:29.146Z,31.13
2023-01-29T08:23:57.009Z,31.42
2023-01-29T08:26:26.272Z,31.42
2023-01-29T08:28:53.461Z,31.20
2023-01-29T08:31:20.831Z,31.29
2023-01-29T08:33:48.049Z,31.12
2023-01-29T08:36:15.296Z,31.42
2023-01-29T08:38:42.514Z,31.18
2023-01-29T08:41:09.699Z,31.33
2023-01-29T08:43:37.117Z,31.15
2023-01-29T08:46:04.614Z,31.29
2023-01-29T08:48:31.863Z,31.17
2023-01-29T08:53:46.622Z,31.11
2023-01-29T08:56:13.902Z,31.38
2023-01-29T09:01:28.198Z,31.29
2023-01-29T09:03:55.383Z,31.13
2023-01-29T09:06:22.558Z,31.28
2023-01-29T09:08:49.889Z,31.17
2023-01-29T09:11:17.149Z,31.11
2023-01-29T09:13:44.382Z,31.23
2023-01-29T09:16:11.644Z,31.04
2023-01-29T09:18:38.819Z,31.21
2023-01-29T09:21:06.051Z,31.19
2023-01-29T09:23:33.285Z,31.11
2023-01-29T09:28:47.569Z,30.85
2023-01-29T09:31:14.936Z,31.04
2023-01-29T09:33:42.278Z,31.20
2023-01-29T09:36:09.549Z,31.04
2023-01-29T09:38:36.824Z,31.07
2023-01-29T09:43:51.330Z,30.89
2023-01-29T09:46:18.580Z,31.00
2023-01-29T09:48:45.815Z,30.89
2023-01-29T09:51:12.988Z,31.16
2023-01-29T09:53:40.167Z,31.17
2023-01-29T09:56:07.411Z,30.91
2023-01-29T09:58:34.593Z,31.13
2023-01-29T10:03:28.877Z,30.99
2023-01-29T10:05:56.047Z,30.69
2023-01-29T10:08:23.706Z,30.98
2023-01-29T10:10:50.901Z,30.99
2023-01-29T10:13:18.084Z,31.10
2023-01-29T10:15:45.294Z,30.96
2023-01-29T10:18:12.513Z,31.03
2023-01-29T10:20:39.732Z,31.00
2023-01-29T10:23:06.989Z,30.79
2023-01-29T10:25:34.218Z,30.96
2023-01-29T10:30:48.628Z,30.83
2023-01-29T10:33:15.862Z,30.86
2023-01-29T10:35:43.032Z,30.72
2023-01-29T10:38:10.208Z,30.71
2023-01-29T10:40:37.382Z,30.93
2023-01-29T10:43:04.705Z,30.93
2023-01-29T10:45:31.902Z,30.69
2023-01-29T10:50:49.229Z,30.67
2023-01-29T10:53:16.435Z,30.70
2023-01-29T10:55:43.681Z,30.78
2023-01-29T10:58:10.887Z,30.70
2023-01-29T11:00:38.069Z,30.82
2023-01-29T11:03:08.180Z,30.64
2023-01-29T11:05:37.419Z,30.60
2023-01-29T11:08:04.605Z,30.67
2023-01-29T11:10:31.795Z,30.92
2023-01-29T11:12:58.966Z,30.68
2023-01-29T11:15:26.155Z,30.88
2023-01-29T11:17:53.321Z,30.67
2023-01-29T11:20:20.499Z,30.89
2023-01-29T11:22:47.850Z,30.89
2023-01-29T11:25:15.013Z,30.79
2023-01-29T11:27:42.280Z,30.55
2023-01-29T11:30:09.447Z,30.61
2023-01-29T11:32:36.700Z,30.73
2023-01-29T11:37:51.106Z,30.78
2023-01-29T11:40:18.541Z,30.78
2023-01-29T11:42:45.900Z,30.73
2023-01-29T11:45:13.066Z,30.85
2023-01-29T11:47:40.255Z,30.75
2023-01-29T11:50:07.438Z,30.68
2023-01-29T11:52:34.607Z,30.79
2023-01-29T11:55:02.329Z,30.71
2023-01-29T11:57:29.643Z,30.70
2023-01-29T11:59:56.832Z,30.54
2023-01-29T12:02:24.043Z,30.52
2023-01-29T12:04:51.231Z,30.60
2023-01-29T12:07:18.422Z,30.38
2023-01-29T12:09:45.621Z,30.75
2023-01-29T12:12:12.791Z,30.49
2023-01-29T12:14:39.993Z,30.69
2023-01-29T12:19:54.369Z,30.38
2023-01-29T12:22:21.607Z,30.54
2023-01-29T12:24:48.817Z,30.63
2023-01-29T12:27:16.159Z,30.63
2023-01-29T12:29:43.372Z,30.58
2023-01-29T12:32:10.596Z,30.63
2023-01-29T12:34:39.333Z,30.50
2023-01-29T12:39:53.612Z,30.29
2023-01-29T12:42:20.855Z,30.39
2023-01-29T12:44:48.058Z,30.44
2023-01-29T12:47:17.085Z,30.47
2023-01-29T12:49:44.475Z,30.60
2023-01-29T12:52:11.701Z,30.41
2023-01-29T12:54:38.911Z,30.34
2023-01-29T12:59:53.201Z,30.19
2023-01-29T13:02:20.488Z,30.37
2023-01-29T13:04:47.663Z,30.42
2023-01-29T13:07:14.900Z,30.39
2023-01-29T13:09:42.101Z,30.51
2023-01-29T13:12:09.324Z,30.36
2023-01-29T13:14:36.500Z,30.36
2023-01-29T13:17:03.671Z,30.53
2023-01-29T13:19:30.896Z,30.60
2023-01-29T13:21:58.144Z,30.38
2023-01-29T13:24:25.336Z,30.52
2023-01-29T13:26:52.552Z,30.43
2023-01-29T13:29:19.736Z,30.29
2023-01-29T13:34:34.108Z,30.36
2023-01-29T13:37:01.285Z,30.43
2023-01-29T13:39:28.589Z,30.34
2023-01-29T13:41:55.808Z,30.50
2023-01-29T13:44:23.046Z,30.47
2023-01-29T13:46:50.253Z,30.56
2023-01-29T13:49:17.446Z,30.26
2023-01-29T13:51:44.633Z,30.62
2023-01-29T13:54:11.813Z,30.46
2023-01-29T13:56:39.005Z,30.49
2023-01-29T14:01:53.287Z,30.28
2023-01-29T14:04:25.527Z,30.35
2023-01-29T14:06:52.787Z,30.35
2023-01-29T14:09:19.989Z,30.38
2023-01-29T14:11:47.167Z,30.49
2023-01-29T14:14:14.365Z,30.48
2023-01-29T14:16:41.602Z,30.19
2023-01-29T14:24:43.021Z,30.46
2023-01-29T14:40:47.098Z,30.26
2023-01-29T14:46:06.899Z,30.40
2023-01-29T14:48:34.076Z,30.39
2023-01-29T14:51:01.262Z,30.27
2023-01-29T14:53:28.434Z,30.13
2023-01-29T14:55:55.635Z,30.28
2023-01-29T14:58:22.884Z,30.18
2023-01-29T15:00:50.067Z,30.45
2023-01-29T15:03:17.272Z,30.25
2023-01-29T15:05:44.473Z,30.06
2023-01-29T15:08:11.676Z,30.33
2023-01-29T15:10:39.001Z,30.20
2023-01-29T15:13:06.218Z,30.27
2023-01-29T15:15:33.597Z,30.19
2023-01-29T15:18:00.872Z,30.33
2023-01-29T15:20:28.182Z,30.58
2023-01-29T15:22:55.385Z,30.43
2023-01-29T15:25:22.648Z,30.62
2023-01-29T15:27:50.096Z,30.58
2023-01-29T15:30:17.281Z,30.60
2023-01-29T15:32:44.475Z,30.63
2023-01-29T15:35:11.712Z,30.66
2023-01-29T15:37:39.005Z,30.48
2023-01-29T15:40:07.215Z,30.51
2023-01-29T15:42:34.396Z,30.61
2023-01-29T15:45:01.609Z,30.74
2023-01-29T15:47:28.901Z,30.67
2023-01-29T15:49:57.373Z,30.71
2023-01-29T15:52:24.597Z,30.62
2023-01-29T15:54:51.920Z,30.60
2023-01-29T15:57:19.123Z,30.85
2023-01-29T15:59:46.342Z,30.81
2023-01-29T16:02:13.522Z,30.59
2023-01-29T16:04:40.771Z,30.57
2023-01-29T16:07:07.973Z,30.82
2023-01-29T16:09:35.181Z,30.60
2023-01-29T16:12:02.360Z,30.77
2023-01-29T16:14:29.678Z,30.65
2023-01-29T16:16:56.903Z,30.89
2023-01-29T16:22:11.201Z,30.65
2023-01-29T16:24:39.173Z,30.65
2023-01-29T16:27:06.534Z,30.77
2023-01-29T16:29:33.783Z,30.92
2023-01-29T16:32:02.170Z,30.76
2023-01-29T16:34:29.396Z,30.49
2023-01-29T16:36:56.602Z,30.54
2023-01-29T16:39:23.810Z,30.66
2023-01-29T16:41:50.997Z,30.51
2023-01-29T16:44:18.191Z,30.64
2023-01-29T16:46:45.517Z,30.66
2023-01-29T16:49:12.716Z,30.62
2023-01-29T16:51:39.991Z,30.76
2023-01-29T16:54:07.240Z,30.78
2023-01-29T16:56:34.486Z,30.77
2023-01-29T16:59:01.672Z,30.55
2023-01-29T17:01:28.851Z,30.81
2023-01-29T17:03:56.096Z,30.58
2023-01-29T17:06:23.500Z,30.81
2023-01-29T17:08:50.695Z,30.77
2023-01-29T17:11:17.889Z,30.84
2023-01-29T17:16:32.422Z,30.64
2023-01-29T17:18:59.729Z,30.77
2023-01-29T17:21:26.980Z,30.66
2023-01-29T17:23:54.220Z,30.84
2023-01-29T17:26:21.475Z,30.60
2023-01-29T17:28:48.714Z,30.75
2023-01-29T17:31:15.964Z,30.55
2023-01-29T17:33:43.346Z,30.72
2023-01-29T17:36:10.527Z,30.78
2023-01-29T17:38:37.696Z,30.66
2023-01-29T17:41:04.863Z,30.54
2023-01-29T17:43:32.107Z,30.87
2023-01-29T17:45:59.360Z,30.88
2023-01-29T17:48:26.571Z,30.88
2023-01-29T17:50:53.819Z,30.73
2023-01-29T17:53:21.072Z,30.85
2023-01-29T17:55:48.427Z,30.62
2023-01-29T17:58:15.613Z,30.65
2023-01-29T18:00:42.830Z,30.77
2023-01-29T18:03:10.065Z,30.91
2023-01-29T18:05:37.295Z,30.57
2023-01-29T18:08:04.783Z,30.86
2023-01-29T18:10:31.987Z,30.63
2023-01-29T18:12:59.186Z,30.83
2023-01-29T18:15:26.355Z,30.74
2023-01-29T18:17:54.647Z,30.74
2023-01-29T18:20:21.879Z,30.68
2023-01-29T18:22:49.080Z,30.85
2023-01-29T18:25:16.680Z,30.65
2023-01-29T18:27:44.133Z,30.95
2023-01-29T18:30:11.415Z,30.68
2023-01-29T18:32:38.708Z,30.72
2023-01-29T18:35:06.613Z,30.73
2023-01-29T18:37:34.020Z,30.62
2023-01-29T18:40:01.278Z,30.97
2023-01-29T18:42:28.575Z,30.88
2023-01-29T18:44:55.818Z,30.76
2023-01-29T18:47:23.738Z,30.71
2023-01-29T18:49:51.938Z,30.96
2023-01-29T18:54:46.356Z,30.86
2023-01-29T18:57:14.951Z,30.97
2023-01-29T18:59:43.142Z,30.98
2023-01-29T19:02:12.115Z,31.08
2023-01-29T19:04:39.380Z,30.91
2023-01-29T19:07:06.548Z,30.78
2023-01-29T19:09:33.750Z,30.67
2023-01-29T19:12:00.939Z,30.67
2023-01-29T19:14:28.192Z,30.81
2023-01-29T19:16:55.394Z,30.68
2023-01-29T19:19:22.723Z,30.87
2023-01-29T19:21:49.989Z,30.93
2023-01-29T19:24:17.322Z,30.70
2023-01-29T19:26:47.592Z,30.98
2023-01-29T19:29:14.841Z,30.90
2023-01-29T19:34:29.403Z,31.03
2023-01-29T19:36:56.637Z,30.82
2023-01-29T19:39:23.914Z,31.11
2023-01-29T19:41:51.353Z,31.06
2023-01-29T19:44:18.656Z,31.07
2023-01-29T19:46:46.843Z,31.01
2023-01-29T19:49:14.131Z,31.14
2023-01-29T19:51:41.661Z,30.78
2023-01-29T19:54:09.002Z,31.00
2023-01-29T19:56:36.185Z,31.25
2023-01-29T19:59:05.030Z,31.09
2023-01-29T20:01:32.416Z,31.02
2023-01-29T20:03:59.755Z,31.41
2023-01-29T20:06:26.984Z,31.14
2023-01-29T20:08:54.481Z,31.30
2023-01-29T20:11:21.896Z,31.17
2023-01-29T20:13:49.706Z,31.16
2023-01-29T20:16:17.334Z,31.18
2023-01-29T20:21:31.819Z,31.14
2023-01-29T20:23:59.233Z,31.01
2023-01-29T20:26:26.554Z,30.94
2023-01-29T20:28:54.009Z,30.92
2023-01-29T20:31:21.421Z,31.13
2023-01-29T20:33:48.626Z,31.12
2023-01-29T20:36:16.039Z,31.24
2023-01-29T20:41:30.459Z,31.07
2023-01-29T20:43:57.734Z,30.87
2023-01-29T20:46:25.198Z,31.20
2023-01-29T20:48:56.656Z,31.10
2023-01-29T20:56:59.970Z,31.32
2023-01-29T20:59:29.012Z,30.97
2023-01-29T21:01:56.421Z,31.05
2023-01-29T21:04:23.722Z,31.31
2023-01-29T21:06:50.917Z,31.11
2023-01-29T21:09:18.101Z,31.14
2023-01-29T21:11:45.288Z,31.13
2023-01-29T21:14:12.621Z,31.09
2023-01-29T21:19:27.830Z,31.21
2023-01-29T21:21:57.863Z,31.21
2023-01-29T21:24:25.230Z,31.02
2023-01-29T21:26:52.449Z,31.05
2023-01-29T21:29:19.887Z,31.35
2023-01-29T21:31:47.124Z,31.30
2023-01-29T21:34:14.420Z,31.25
2023-01-29T21:39:28.713Z,31.16
2023-01-29T21:42:14.750Z,31.38
2023-01-29T21:47:14.968Z,31.14
2023-01-29T21:49:42.173Z,31.29
2023-01-29T21:52:09.353Z,31.39
2023-01-29T21:54:45.745Z,31.36
2023-01-29T21:57:13.047Z,31.19
2023-01-29T21:59:40.479Z,31.11
2023-01-29T22:02:07.748Z,31.25
2023-01-29T22:04:35.031Z,31.28
2023-01-29T22:07:02.249Z,31.32
2023-01-29T22:09:29.583Z,31.22
2023-01-29T22:11:56.992Z,31.38
2023-01-29T22:14:24.182Z,31.29
2023-01-29T22:16:51.472Z,31.30
2023-01-29T22:19:18.681Z,31.29
2023-01-29T22:24:33.204Z,31.26
2023-01-29T22:27:00.445Z,31.34
2023-01-29T22:29:27.639Z,31.42
2023-01-29T22:31:56.566Z,31.15
2023-01-29T22:34:23.773Z,31.44
2023-01-29T22:36:51.023Z,31.51
2023-01-29T22:39:18.216Z,31.46
2023-01-29T22:44:32.561Z,31.29
2023-01-29T22:46:59.734Z,31.18
2023-01-29T22:49:29.517Z,31.30
2023-01-29T22:52:12.189Z,31.40
2023-01-29T22:54:39.400Z,31.36
2023-01-29T22:57:06.664Z,31.43
2023-01-29T22:59:33.874Z,31.43
2023-01-29T23:02:01.204Z,31.34
2023-01-29T23:04:28.571Z,31.42
2023-01-29T23:06:55.812Z,31.36
2023-01-29T23:09:22.973Z,31.34
2023-01-29T23:11:50.301Z,31.34
2023-01-29T23:14:17.484Z,31.49
2023-01-29T23:16:44.725Z,31.35
2023-01-29T23:19:12.315Z,31.39
2023-01-29T23:21:39.811Z,31.35
2023-01-29T23:24:07.420Z,31.41
2023-01-29T23:26:53.432Z,31.35
2023-01-29T23:29:20.676Z,31.45
2023-01-29T23:34:34.976Z,31.47
2023-01-29T23:37:02.145Z,31.68
2023-01-29T23:39:29.322Z,31.38
2023-01-29T23:41:56.508Z,31.58
2023-01-29T23:44:23.693Z,31.54
2023-01-29T23:46:50.934Z,31.65
2023-01-29T23:49:18.766Z,31.67
2023-01-29T23:54:33.186Z,31.54
2023-01-29T23:57:00.376Z,31.44
